sensor_id;sensor_type;location;lat;lon;timestamp;P1;durP1;ratioP1;P2;durP2;ratioP2
68196;SDS011;55019;49.382;11.358;2024-01-30T00:02:30;2.63;;;1.63;;
68196;SDS011;55019;49.382;11.358;2024-01-30T00:04:57;2.97;;;1.73;;
68196;SDS011;55019;49.382;11.358;2024-01-30T00:07:23;2.45;;;1.25;;
68196;SDS011;55019;49.382;11.358;2024-01-30T00:09:48;2.70;;;1.40;;
68196;SDS011;55019;49.382;11.358;2024-01-30T00:12:14;3.08;;;1.27;;
68196;SDS011;55019;49.382;11.358;2024-01-30T00:14:43;5.38;;;1.65;;
68196;SDS011;55019;49.382;11.358;2024-01-30T00:17:09;4.50;;;1.52;;
68196;SDS011;55019;49.382;11.358;2024-01-30T00:19:35;2.45;;;1.00;;
68196;SDS011;55019;49.382;11.358;2024-01-30T00:22:00;3.17;;;1.30;;
68196;SDS011;55019;49.382;11.358;2024-01-30T00:24:26;3.47;;;1.30;;
68196;SDS011;55019;49.382;11.358;2024-01-30T00:26:52;2.33;;;1.25;;
68196;SDS011;55019;49.382;11.358;2024-01-30T00:29:17;3.40;;;1.52;;
68196;SDS011;55019;49.382;11.358;2024-01-30T00:31:52;2.78;;;1.35;;
68196;SDS011;55019;49.382;11.358;2024-01-30T00:34:18;2.58;;;1.00;;
68196;SDS011;55019;49.382;11.358;2024-01-30T00:36:46;1.90;;;1.20;;
68196;SDS011;55019;49.382;11.358;2024-01-30T00:39:12;1.98;;;1.08;;
68196;SDS011;55019;49.382;11.358;2024-01-30T00:41:38;2.72;;;1.05;;
68196;SDS011;55019;49.382;11.358;2024-01-30T00:44:03;1.85;;;1.00;;
68196;SDS011;55019;49.382;11.358;2024-01-30T00:46:29;2.47;;;1.25;;
68196;SDS011;55019;49.382;11.358;2024-01-30T00:48:55;3.17;;;1.10;;
68196;SDS011;55019;49.382;11.358;2024-01-30T00:51:21;2.28;;;1.05;;
68196;SDS011;55019;49.382;11.358;2024-01-30T00:53:46;3.08;;;1.30;;
68196;SDS011;55019;49.382;11.358;2024-01-30T00:56:12;2.13;;;1.40;;
68196;SDS011;55019;49.382;11.358;2024-01-30T00:58:38;3.22;;;1.33;;
68196;SDS011;55019;49.382;11.358;2024-01-30T01:01:04;2.03;;;0.93;;
68196;SDS011;55019;49.382;11.358;2024-01-30T01:03:30;3.40;;;1.02;;
68196;SDS011;55019;49.382;11.358;2024-01-30T01:06:01;2.45;;;1.08;;
68196;SDS011;55019;49.382;11.358;2024-01-30T01:08:27;2.65;;;1.13;;
68196;SDS011;55019;49.382;11.358;2024-01-30T01:10:53;2.78;;;1.05;;
68196;SDS011;55019;49.382;11.358;2024-01-30T01:13:19;2.45;;;1.02;;
68196;SDS011;55019;49.382;11.358;2024-01-30T01:15:44;2.13;;;0.85;;
68196;SDS011;55019;49.382;11.358;2024-01-30T01:20:44;1.55;;;0.70;;
68196;SDS011;55019;49.382;11.358;2024-01-30T01:23:10;1.35;;;0.73;;
68196;SDS011;55019;49.382;11.358;2024-01-30T01:25:36;2.40;;;0.82;;
68196;SDS011;55019;49.382;11.358;2024-01-30T01:28:02;2.88;;;1.08;;
68196;SDS011;55019;49.382;11.358;2024-01-30T01:30:31;3.17;;;1.02;;
68196;SDS011;55019;49.382;11.358;2024-01-30T01:32:56;3.17;;;0.90;;
68196;SDS011;55019;49.382;11.358;2024-01-30T01:35:25;1.52;;;0.95;;
68196;SDS011;55019;49.382;11.358;2024-01-30T01:37:52;1.75;;;0.75;;
68196;SDS011;55019;49.382;11.358;2024-01-30T01:40:25;1.98;;;0.93;;
68196;SDS011;55019;49.382;11.358;2024-01-30T01:42:51;2.72;;;1.23;;
68196;SDS011;55019;49.382;11.358;2024-01-30T01:45:18;2.50;;;1.08;;
68196;SDS011;55019;49.382;11.358;2024-01-30T01:47:52;2.00;;;1.05;;
68196;SDS011;55019;49.382;11.358;2024-01-30T01:50:18;4.05;;;0.85;;
68196;SDS011;55019;49.382;11.358;2024-01-30T01:52:49;2.05;;;1.00;;
68196;SDS011;55019;49.382;11.358;2024-01-30T01:55:16;2.97;;;0.95;;
68196;SDS011;55019;49.382;11.358;2024-01-30T02:00:10;3.60;;;1.17;;
68196;SDS011;55019;49.382;11.358;2024-01-30T02:02:37;2.50;;;1.20;;
68196;SDS011;55019;49.382;11.358;2024-01-30T02:05:04;2.28;;;1.10;;
68196;SDS011;55019;49.382;11.358;2024-01-30T02:07:30;2.45;;;1.42;;
68196;SDS011;55019;49.382;11.358;2024-01-30T02:09:56;1.65;;;1.20;;
68196;SDS011;55019;49.382;11.358;2024-01-30T02:12:22;2.65;;;0.95;;
68196;SDS011;55019;49.382;11.358;2024-01-30T02:14:48;2.33;;;1.20;;
68196;SDS011;55019;49.382;11.358;2024-01-30T02:17:17;2.22;;;1.10;;
68196;SDS011;55019;49.382;11.358;2024-01-30T02:19:43;3.13;;;1.48;;
68196;SDS011;55019;49.382;11.358;2024-01-30T02:22:12;3.50;;;1.52;;
68196;SDS011;55019;49.382;11.358;2024-01-30T02:24:38;2.10;;;1.25;;
68196;SDS011;55019;49.382;11.358;2024-01-30T02:27:04;3.65;;;1.45;;
68196;SDS011;55019;49.382;11.358;2024-01-30T02:29:30;1.80;;;0.95;;
68196;SDS011;55019;49.382;11.358;2024-01-30T02:32:02;3.40;;;1.73;;
68196;SDS011;55019;49.382;11.358;2024-01-30T02:34:28;1.70;;;1.08;;
68196;SDS011;55019;49.382;11.358;2024-01-30T02:36:54;2.13;;;1.30;;
68196;SDS011;55019;49.382;11.358;2024-01-30T02:39:19;2.45;;;1.40;;
68196;SDS011;55019;49.382;11.358;2024-01-30T02:41:45;2.85;;;0.95;;
68196;SDS011;55019;49.382;11.358;2024-01-30T02:44:11;2.88;;;1.55;;
68196;SDS011;55019;49.382;11.358;2024-01-30T02:46:37;2.40;;;1.20;;
68196;SDS011;55019;49.382;11.358;2024-01-30T02:49:02;1.48;;;1.17;;
68196;SDS011;55019;49.382;11.358;2024-01-30T02:51:28;3.70;;;1.63;;
68196;SDS011;55019;49.382;11.358;2024-01-30T02:53:54;2.92;;;1.45;;
68196;SDS011;55019;49.382;11.358;2024-01-30T02:56:19;2.03;;;1.33;;
68196;SDS011;55019;49.382;11.358;2024-01-30T02:58:45;3.03;;;1.33;;
68196;SDS011;55019;49.382;11.358;2024-01-30T03:01:11;2.45;;;1.20;;
68196;SDS011;55019;49.382;11.358;2024-01-30T03:03:36;3.47;;;1.40;;
68196;SDS011;55019;49.382;11.358;2024-01-30T03:06:02;3.30;;;1.42;;
68196;SDS011;55019;49.382;11.358;2024-01-30T03:08:28;1.58;;;0.95;;
68196;SDS011;55019;49.382;11.358;2024-01-30T03:10:54;3.35;;;1.30;;
68196;SDS011;55019;49.382;11.358;2024-01-30T03:13:21;3.78;;;1.38;;
68196;SDS011;55019;49.382;11.358;2024-01-30T03:15:46;2.22;;;1.45;;
68196;SDS011;55019;49.382;11.358;2024-01-30T03:18:12;2.35;;;1.60;;
68196;SDS011;55019;49.382;11.358;2024-01-30T03:20:38;3.30;;;1.40;;
68196;SDS011;55019;49.382;11.358;2024-01-30T03:23:04;5.20;;;1.88;;
68196;SDS011;55019;49.382;11.358;2024-01-30T03:25:35;3.90;;;1.45;;
68196;SDS011;55019;49.382;11.358;2024-01-30T03:28:01;2.90;;;1.42;;
68196;SDS011;55019;49.382;11.358;2024-01-30T03:30:29;4.13;;;1.63;;
68196;SDS011;55019;49.382;11.358;2024-01-30T03:32:55;2.75;;;1.48;;
68196;SDS011;55019;49.382;11.358;2024-01-30T03:35:23;3.13;;;1.70;;
68196;SDS011;55019;49.382;11.358;2024-01-30T03:37:49;3.15;;;1.67;;
68196;SDS011;55019;49.382;11.358;2024-01-30T03:40:15;3.92;;;1.90;;
68196;SDS011;55019;49.382;11.358;2024-01-30T03:42:41;4.97;;;1.80;;
68196;SDS011;55019;49.382;11.358;2024-01-30T03:45:07;4.55;;;1.90;;
68196;SDS011;55019;49.382;11.358;2024-01-30T03:47:33;5.32;;;2.50;;
68196;SDS011;55019;49.382;11.358;2024-01-30T03:49:59;4.65;;;2.33;;
68196;SDS011;55019;49.382;11.358;2024-01-30T03:52:25;4.57;;;2.72;;
68196;SDS011;55019;49.382;11.358;2024-01-30T03:54:50;4.75;;;2.20;;
68196;SDS011;55019;49.382;11.358;2024-01-30T03:57:16;4.47;;;2.40;;
68196;SDS011;55019;49.382;11.358;2024-01-30T03:59:42;5.10;;;2.30;;
68196;SDS011;55019;49.382;11.358;2024-01-30T04:02:09;3.65;;;2.45;;
68196;SDS011;55019;49.382;11.358;2024-01-30T04:04:45;4.93;;;2.70;;
68196;SDS011;55019;49.382;11.358;2024-01-30T04:07:11;7.15;;;2.88;;
68196;SDS011;55019;49.382;11.358;2024-01-30T04:09:38;5.57;;;2.63;;
68196;SDS011;55019;49.382;11.358;2024-01-30T04:12:04;5.72;;;3.00;;
68196;SDS011;55019;49.382;11.358;2024-01-30T04:14:29;7.15;;;2.95;;
68196;SDS011;55019;49.382;11.358;2024-01-30T04:16:55;4.63;;;2.80;;
68196;SDS011;55019;49.382;11.358;2024-01-30T04:19:21;8.07;;;3.30;;
68196;SDS011;55019;49.382;11.358;2024-01-30T04:21:47;6.63;;;3.05;;
68196;SDS011;55019;49.382;11.358;2024-01-30T04:24:12;5.80;;;2.80;;
68196;SDS011;55019;49.382;11.358;2024-01-30T04:26:38;6.45;;;3.10;;
68196;SDS011;55019;49.382;11.358;2024-01-30T04:29:04;4.97;;;2.83;;
68196;SDS011;55019;49.382;11.358;2024-01-30T04:31:30;5.82;;;3.05;;
68196;SDS011;55019;49.382;11.358;2024-01-30T04:33:55;4.80;;;2.63;;
68196;SDS011;55019;49.382;11.358;2024-01-30T04:36:21;4.78;;;2.22;;
68196;SDS011;55019;49.382;11.358;2024-01-30T04:38:47;3.47;;;2.38;;
68196;SDS011;55019;49.382;11.358;2024-01-30T04:41:13;5.35;;;2.60;;
68196;SDS011;55019;49.382;11.358;2024-01-30T04:43:39;5.28;;;2.55;;
68196;SDS011;55019;49.382;11.358;2024-01-30T04:46:04;4.25;;;2.70;;
68196;SDS011;55019;49.382;11.358;2024-01-30T04:48:33;5.80;;;2.65;;
68196;SDS011;55019;49.382;11.358;2024-01-30T04:50:59;4.35;;;2.72;;
68196;SDS011;55019;49.382;11.358;2024-01-30T04:53:29;4.97;;;2.53;;
68196;SDS011;55019;49.382;11.358;2024-01-30T04:55:56;5.20;;;2.90;;
68196;SDS011;55019;49.382;11.358;2024-01-30T04:58:22;7.18;;;3.30;;
68196;SDS011;55019;49.382;11.358;2024-01-30T05:00:48;7.90;;;3.22;;
68196;SDS011;55019;49.382;11.358;2024-01-30T05:03:17;5.85;;;2.72;;
68196;SDS011;55019;49.382;11.358;2024-01-30T05:05:44;8.02;;;4.00;;
68196;SDS011;55019;49.382;11.358;2024-01-30T05:08:10;6.78;;;3.67;;
68196;SDS011;55019;49.382;11.358;2024-01-30T05:10:35;6.45;;;3.28;;
68196;SDS011;55019;49.382;11.358;2024-01-30T05:13:01;6.75;;;3.42;;
68196;SDS011;55019;49.382;11.358;2024-01-30T05:15:27;9.45;;;3.45;;
68196;SDS011;55019;49.382;11.358;2024-01-30T05:17:52;6.75;;;3.15;;
68196;SDS011;55019;49.382;11.358;2024-01-30T05:20:19;9.23;;;3.63;;
68196;SDS011;55019;49.382;11.358;2024-01-30T05:22:45;9.05;;;4.05;;
68196;SDS011;55019;49.382;11.358;2024-01-30T05:25:12;5.65;;;3.40;;
68196;SDS011;55019;49.382;11.358;2024-01-30T05:27:38;6.30;;;3.20;;
68196;SDS011;55019;49.382;11.358;2024-01-30T05:30:05;8.63;;;4.47;;
68196;SDS011;55019;49.382;11.358;2024-01-30T05:32:32;6.28;;;3.35;;
68196;SDS011;55019;49.382;11.358;2024-01-30T05:34:57;10.27;;;4.38;;
68196;SDS011;55019;49.382;11.358;2024-01-30T05:37:23;9.38;;;3.97;;
68196;SDS011;55019;49.382;11.358;2024-01-30T05:39:49;6.20;;;3.72;;
68196;SDS011;55019;49.382;11.358;2024-01-30T05:42:15;7.40;;;3.40;;
68196;SDS011;55019;49.382;11.358;2024-01-30T05:44:42;8.52;;;3.85;;
68196;SDS011;55019;49.382;11.358;2024-01-30T05:47:08;9.05;;;4.35;;
68196;SDS011;55019;49.382;11.358;2024-01-30T05:49:34;7.13;;;3.50;;
68196;SDS011;55019;49.382;11.358;2024-01-30T05:52:01;7.95;;;3.35;;
68196;SDS011;55019;49.382;11.358;2024-01-30T05:54:28;7.50;;;3.55;;
68196;SDS011;55019;49.382;11.358;2024-01-30T05:56:54;5.10;;;3.20;;
68196;SDS011;55019;49.382;11.358;2024-01-30T05:59:20;7.07;;;3.67;;
68196;SDS011;55019;49.382;11.358;2024-01-30T06:01:46;6.50;;;3.63;;
68196;SDS011;55019;49.382;11.358;2024-01-30T06:04:13;6.88;;;3.80;;
68196;SDS011;55019;49.382;11.358;2024-01-30T06:06:39;9.30;;;3.53;;
68196;SDS011;55019;49.382;11.358;2024-01-30T06:09:05;6.95;;;3.33;;
68196;SDS011;55019;49.382;11.358;2024-01-30T06:11:31;7.88;;;3.33;;
68196;SDS011;55019;49.382;11.358;2024-01-30T06:13:57;7.15;;;3.47;;
68196;SDS011;55019;49.382;11.358;2024-01-30T06:16:23;8.30;;;4.45;;
68196;SDS011;55019;49.382;11.358;2024-01-30T06:18:49;7.53;;;3.85;;
68196;SDS011;55019;49.382;11.358;2024-01-30T06:21:15;9.32;;;4.07;;
68196;SDS011;55019;49.382;11.358;2024-01-30T06:23:40;8.48;;;4.40;;
68196;SDS011;55019;49.382;11.358;2024-01-30T06:26:06;8.38;;;3.75;;
68196;SDS011;55019;49.382;11.358;2024-01-30T06:28:33;9.05;;;4.50;;
68196;SDS011;55019;49.382;11.358;2024-01-30T06:31:00;10.32;;;4.55;;
68196;SDS011;55019;49.382;11.358;2024-01-30T06:33:27;8.13;;;4.22;;
68196;SDS011;55019;49.382;11.358;2024-01-30T06:35:52;10.15;;;4.53;;
68196;SDS011;55019;49.382;11.358;2024-01-30T06:38:18;10.75;;;4.97;;
68196;SDS011;55019;49.382;11.358;2024-01-30T06:40:44;10.52;;;4.28;;
68196;SDS011;55019;49.382;11.358;2024-01-30T06:43:09;9.57;;;5.03;;
68196;SDS011;55019;49.382;11.358;2024-01-30T06:45:35;7.60;;;3.60;;
68196;SDS011;55019;49.382;11.358;2024-01-30T06:48:01;12.48;;;4.47;;
68196;SDS011;55019;49.382;11.358;2024-01-30T06:50:26;8.15;;;3.97;;
68196;SDS011;55019;49.382;11.358;2024-01-30T06:52:52;6.53;;;3.92;;
68196;SDS011;55019;49.382;11.358;2024-01-30T06:55:18;11.70;;;5.18;;
68196;SDS011;55019;49.382;11.358;2024-01-30T06:57:44;9.40;;;4.97;;
68196;SDS011;55019;49.382;11.358;2024-01-30T07:00:10;8.75;;;4.75;;
68196;SDS011;55019;49.382;11.358;2024-01-30T07:02:36;10.25;;;4.68;;
68196;SDS011;55019;49.382;11.358;2024-01-30T07:05:02;8.57;;;4.95;;
68196;SDS011;55019;49.382;11.358;2024-01-30T07:07:28;10.50;;;4.55;;
68196;SDS011;55019;49.382;11.358;2024-01-30T07:09:54;10.93;;;4.90;;
68196;SDS011;55019;49.382;11.358;2024-01-30T07:12:23;8.98;;;4.35;;
68196;SDS011;55019;49.382;11.358;2024-01-30T07:14:50;10.80;;;4.70;;
68196;SDS011;55019;49.382;11.358;2024-01-30T07:17:17;12.02;;;4.55;;
68196;SDS011;55019;49.382;11.358;2024-01-30T07:19:42;8.88;;;4.85;;
68196;SDS011;55019;49.382;11.358;2024-01-30T07:22:08;12.45;;;5.25;;
68196;SDS011;55019;49.382;11.358;2024-01-30T07:24:34;11.68;;;5.50;;
68196;SDS011;55019;49.382;11.358;2024-01-30T07:27:00;9.27;;;4.90;;
68196;SDS011;55019;49.382;11.358;2024-01-30T07:29:26;11.00;;;5.47;;
68196;SDS011;55019;49.382;11.358;2024-01-30T07:31:52;11.90;;;5.90;;
68196;SDS011;55019;49.382;11.358;2024-01-30T07:34:18;11.15;;;6.22;;
68196;SDS011;55019;49.382;11.358;2024-01-30T07:36:43;11.23;;;5.03;;
68196;SDS011;55019;49.382;11.358;2024-01-30T07:39:09;11.45;;;5.72;;
68196;SDS011;55019;49.382;11.358;2024-01-30T07:41:35;10.05;;;5.22;;
68196;SDS011;55019;49.382;11.358;2024-01-30T07:44:02;12.07;;;5.97;;
68196;SDS011;55019;49.382;11.358;2024-01-30T07:46:28;10.90;;;5.38;;
68196;SDS011;55019;49.382;11.358;2024-01-30T07:48:54;14.60;;;6.20;;
68196;SDS011;55019;49.382;11.358;2024-01-30T07:51:21;12.52;;;6.13;;
68196;SDS011;55019;49.382;11.358;2024-01-30T07:53:47;13.20;;;6.85;;
68196;SDS011;55019;49.382;11.358;2024-01-30T07:56:12;10.10;;;5.72;;
68196;SDS011;55019;49.382;11.358;2024-01-30T07:58:38;10.90;;;6.03;;
68196;SDS011;55019;49.382;11.358;2024-01-30T08:01:04;12.10;;;6.50;;
68196;SDS011;55019;49.382;11.358;2024-01-30T08:03:30;13.10;;;7.22;;
68196;SDS011;55019;49.382;11.358;2024-01-30T08:05:56;13.80;;;6.38;;
68196;SDS011;55019;49.382;11.358;2024-01-30T08:08:21;11.65;;;6.47;;
68196;SDS011;55019;49.382;11.358;2024-01-30T08:10:47;14.88;;;7.68;;
68196;SDS011;55019;49.382;11.358;2024-01-30T08:13:14;15.02;;;7.13;;
68196;SDS011;55019;49.382;11.358;2024-01-30T08:15:40;13.75;;;7.30;;
68196;SDS011;55019;49.382;11.358;2024-01-30T08:18:05;13.05;;;7.43;;
68196;SDS011;55019;49.382;11.358;2024-01-30T08:22:59;10.60;;;5.68;;
68196;SDS011;55019;49.382;11.358;2024-01-30T08:25:26;10.68;;;6.18;;
68196;SDS011;55019;49.382;11.358;2024-01-30T08:27:51;13.43;;;6.65;;
68196;SDS011;55019;49.382;11.358;2024-01-30T08:30:18;12.38;;;6.70;;
68196;SDS011;55019;49.382;11.358;2024-01-30T08:32:44;12.65;;;6.28;;
68196;SDS011;55019;49.382;11.358;2024-01-30T08:35:10;12.05;;;6.38;;
68196;SDS011;55019;49.382;11.358;2024-01-30T08:37:39;9.60;;;5.93;;
68196;SDS011;55019;49.382;11.358;2024-01-30T08:40:05;11.98;;;6.82;;
68196;SDS011;55019;49.382;11.358;2024-01-30T08:42:31;11.20;;;6.78;;
68196;SDS011;55019;49.382;11.358;2024-01-30T08:44:57;13.82;;;6.63;;
68196;SDS011;55019;49.382;11.358;2024-01-30T08:47:22;13.10;;;6.40;;
68196;SDS011;55019;49.382;11.358;2024-01-30T08:49:48;13.27;;;6.85;;
68196;SDS011;55019;49.382;11.358;2024-01-30T08:52:14;10.52;;;7.15;;
68196;SDS011;55019;49.382;11.358;2024-01-30T08:54:39;10.63;;;6.50;;
68196;SDS011;55019;49.382;11.358;2024-01-30T08:57:05;13.77;;;7.95;;
68196;SDS011;55019;49.382;11.358;2024-01-30T08:59:31;11.90;;;6.57;;
68196;SDS011;55019;49.382;11.358;2024-01-30T09:01:56;12.85;;;7.13;;
68196;SDS011;55019;49.382;11.358;2024-01-30T09:04:23;13.27;;;7.55;;
68196;SDS011;55019;49.382;11.358;2024-01-30T09:06:49;11.48;;;6.82;;
68196;SDS011;55019;49.382;11.358;2024-01-30T09:09:15;12.75;;;7.55;;
68196;SDS011;55019;49.382;11.358;2024-01-30T09:11:41;12.02;;;7.38;;
68196;SDS011;55019;49.382;11.358;2024-01-30T09:14:07;11.90;;;6.80;;
68196;SDS011;55019;49.382;11.358;2024-01-30T09:16:32;11.57;;;6.53;;
68196;SDS011;55019;49.382;11.358;2024-01-30T09:18:58;12.23;;;6.82;;
68196;SDS011;55019;49.382;11.358;2024-01-30T09:21:24;10.90;;;7.47;;
68196;SDS011;55019;49.382;11.358;2024-01-30T09:23:50;13.52;;;6.95;;
68196;SDS011;55019;49.382;11.358;2024-01-30T09:26:17;12.90;;;7.35;;
68196;SDS011;55019;49.382;11.358;2024-01-30T09:28:43;14.90;;;7.53;;
68196;SDS011;55019;49.382;11.358;2024-01-30T09:31:12;10.70;;;7.07;;
68196;SDS011;55019;49.382;11.358;2024-01-30T09:33:38;12.55;;;7.60;;
68196;SDS011;55019;49.382;11.358;2024-01-30T09:36:05;12.32;;;7.18;;
68196;SDS011;55019;49.382;11.358;2024-01-30T09:38:31;13.02;;;7.57;;
68196;SDS011;55019;49.382;11.358;2024-01-30T09:40:57;14.10;;;6.78;;
68196;SDS011;55019;49.382;11.358;2024-01-30T09:43:29;15.70;;;8.35;;
68196;SDS011;55019;49.382;11.358;2024-01-30T09:45:59;11.55;;;8.25;;
68196;SDS011;55019;49.382;11.358;2024-01-30T09:48:25;12.18;;;7.47;;
68196;SDS011;55019;49.382;11.358;2024-01-30T09:50:52;12.10;;;7.43;;
68196;SDS011;55019;49.382;11.358;2024-01-30T09:53:18;13.23;;;7.40;;
68196;SDS011;55019;49.382;11.358;2024-01-30T09:55:44;16.02;;;8.02;;
68196;SDS011;55019;49.382;11.358;2024-01-30T09:58:11;11.75;;;7.75;;
68196;SDS011;55019;49.382;11.358;2024-01-30T10:00:37;13.45;;;7.35;;
68196;SDS011;55019;49.382;11.358;2024-01-30T10:03:03;15.50;;;8.43;;
68196;SDS011;55019;49.382;11.358;2024-01-30T10:05:29;13.18;;;8.25;;
68196;SDS011;55019;49.382;11.358;2024-01-30T10:07:59;14.23;;;7.97;;
68196;SDS011;55019;49.382;11.358;2024-01-30T10:10:25;17.05;;;9.20;;
68196;SDS011;55019;49.382;11.358;2024-01-30T10:12:51;16.70;;;9.20;;
68196;SDS011;55019;49.382;11.358;2024-01-30T10:15:17;14.68;;;8.65;;
68196;SDS011;55019;49.382;11.358;2024-01-30T10:17:44;14.13;;;8.23;;
68196;SDS011;55019;49.382;11.358;2024-01-30T10:20:11;14.88;;;7.15;;
68196;SDS011;55019;49.382;11.358;2024-01-30T10:22:37;10.82;;;7.25;;
68196;SDS011;55019;49.382;11.358;2024-01-30T10:25:02;13.98;;;8.15;;
68196;SDS011;55019;49.382;11.358;2024-01-30T10:27:29;13.30;;;8.68;;
68196;SDS011;55019;49.382;11.358;2024-01-30T10:29:55;12.55;;;8.60;;
68196;SDS011;55019;49.382;11.358;2024-01-30T10:32:21;17.55;;;11.10;;
68196;SDS011;55019;49.382;11.358;2024-01-30T10:34:47;13.05;;;8.68;;
68196;SDS011;55019;49.382;11.358;2024-01-30T10:37:13;12.82;;;8.57;;
68196;SDS011;55019;49.382;11.358;2024-01-30T10:39:43;12.90;;;9.10;;
68196;SDS011;55019;49.382;11.358;2024-01-30T10:42:11;13.07;;;8.85;;
68196;SDS011;55019;49.382;11.358;2024-01-30T10:47:32;15.75;;;12.32;;
68196;SDS011;55019;49.382;11.358;2024-01-30T10:50:01;15.98;;;10.55;;
68196;SDS011;55019;49.382;11.358;2024-01-30T10:52:28;22.35;;;15.75;;
68196;SDS011;55019;49.382;11.358;2024-01-30T10:54:55;14.98;;;9.90;;
68196;SDS011;55019;49.382;11.358;2024-01-30T10:57:23;14.93;;;9.68;;
68196;SDS011;55019;49.382;11.358;2024-01-30T10:59:49;14.20;;;9.57;;
68196;SDS011;55019;49.382;11.358;2024-01-30T11:02:18;15.27;;;8.82;;
68196;SDS011;55019;49.382;11.358;2024-01-30T11:04:45;14.02;;;8.15;;
68196;SDS011;55019;49.382;11.358;2024-01-30T11:07:16;14.82;;;9.32;;
68196;SDS011;55019;49.382;11.358;2024-01-30T11:09:52;12.35;;;8.52;;
68196;SDS011;55019;49.382;11.358;2024-01-30T11:12:26;15.38;;;8.88;;
68196;SDS011;55019;49.382;11.358;2024-01-30T11:15:02;14.40;;;8.77;;
68196;SDS011;55019;49.382;11.358;2024-01-30T11:22:42;16.95;;;9.93;;
68196;SDS011;55019;49.382;11.358;2024-01-30T11:25:16;15.40;;;8.20;;
68196;SDS011;55019;49.382;11.358;2024-01-30T11:27:43;11.52;;;7.38;;
68196;SDS011;55019;49.382;11.358;2024-01-30T11:30:10;11.75;;;8.48;;
68196;SDS011;55019;49.382;11.358;2024-01-30T11:32:36;13.90;;;8.02;;
68196;SDS011;55019;49.382;11.358;2024-01-30T11:35:03;12.52;;;7.38;;
68196;SDS011;55019;49.382;11.358;2024-01-30T11:37:31;12.00;;;7.65;;
68196;SDS011;55019;49.382;11.358;2024-01-30T11:39:57;12.27;;;8.40;;
68196;SDS011;55019;49.382;11.358;2024-01-30T11:42:24;11.80;;;8.85;;
68196;SDS011;55019;49.382;11.358;2024-01-30T11:44:52;10.75;;;7.50;;
68196;SDS011;55019;49.382;11.358;2024-01-30T11:47:18;15.75;;;8.23;;
68196;SDS011;55019;49.382;11.358;2024-01-30T11:49:44;12.85;;;7.70;;
68196;SDS011;55019;49.382;11.358;2024-01-30T11:52:10;12.82;;;7.43;;
68196;SDS011;55019;49.382;11.358;2024-01-30T11:54:39;13.80;;;8.20;;
68196;SDS011;55019;49.382;11.358;2024-01-30T11:57:05;13.30;;;7.97;;
68196;SDS011;55019;49.382;11.358;2024-01-30T11:59:31;15.38;;;8.98;;
68196;SDS011;55019;49.382;11.358;2024-01-30T12:01:56;16.38;;;9.32;;
68196;SDS011;55019;49.382;11.358;2024-01-30T12:04:22;14.48;;;8.48;;
68196;SDS011;55019;49.382;11.358;2024-01-30T12:06:51;13.43;;;8.35;;
68196;SDS011;55019;49.382;11.358;2024-01-30T12:09:17;14.30;;;8.82;;
68196;SDS011;55019;49.382;11.358;2024-01-30T12:11:43;14.63;;;8.70;;
68196;SDS011;55019;49.382;11.358;2024-01-30T12:14:10;16.75;;;8.65;;
68196;SDS011;55019;49.382;11.358;2024-01-30T12:16:37;15.80;;;8.65;;
68196;SDS011;55019;49.382;11.358;2024-01-30T12:19:02;14.77;;;8.45;;
68196;SDS011;55019;49.382;11.358;2024-01-30T12:21:29;16.60;;;9.27;;
68196;SDS011;55019;49.382;11.358;2024-01-30T12:23:56;14.13;;;8.13;;
68196;SDS011;55019;49.382;11.358;2024-01-30T12:28:49;12.98;;;8.07;;
68196;SDS011;55019;49.382;11.358;2024-01-30T12:31:15;14.85;;;8.45;;
68196;SDS011;55019;49.382;11.358;2024-01-30T12:33:41;17.60;;;9.27;;
68196;SDS011;55019;49.382;11.358;2024-01-30T12:36:07;13.77;;;8.20;;
68196;SDS011;55019;49.382;11.358;2024-01-30T12:38:32;13.00;;;7.95;;
68196;SDS011;55019;49.382;11.358;2024-01-30T12:41:01;14.55;;;8.05;;
68196;SDS011;55019;49.382;11.358;2024-01-30T12:43:27;16.48;;;8.52;;
68196;SDS011;55019;49.382;11.358;2024-01-30T12:45:53;16.52;;;9.13;;
68196;SDS011;55019;49.382;11.358;2024-01-30T12:48:19;15.10;;;8.23;;
68196;SDS011;55019;49.382;11.358;2024-01-30T12:50:45;18.08;;;9.75;;
68196;SDS011;55019;49.382;11.358;2024-01-30T12:53:11;16.60;;;7.95;;
68196;SDS011;55019;49.382;11.358;2024-01-30T12:55:38;14.68;;;8.15;;
68196;SDS011;55019;49.382;11.358;2024-01-30T12:58:03;12.55;;;7.70;;
68196;SDS011;55019;49.382;11.358;2024-01-30T13:00:49;16.85;;;8.50;;
68196;SDS011;55019;49.382;11.358;2024-01-30T13:03:15;10.43;;;7.03;;
68196;SDS011;55019;49.382;11.358;2024-01-30T13:05:42;14.48;;;8.15;;
68196;SDS011;55019;49.382;11.358;2024-01-30T13:08:08;15.85;;;8.27;;
68196;SDS011;55019;49.382;11.358;2024-01-30T13:10:34;15.63;;;7.68;;
68196;SDS011;55019;49.382;11.358;2024-01-30T13:13:00;14.52;;;8.50;;
68196;SDS011;55019;49.382;11.358;2024-01-30T13:15:29;13.35;;;8.25;;
68196;SDS011;55019;49.382;11.358;2024-01-30T13:17:54;13.65;;;8.73;;
68196;SDS011;55019;49.382;11.358;2024-01-30T13:20:20;13.63;;;8.32;;
68196;SDS011;55019;49.382;11.358;2024-01-30T13:22:47;16.35;;;9.13;;
68196;SDS011;55019;49.382;11.358;2024-01-30T13:25:16;14.77;;;8.48;;
68196;SDS011;55019;49.382;11.358;2024-01-30T13:27:42;15.93;;;8.82;;
68196;SDS011;55019;49.382;11.358;2024-01-30T13:30:08;14.80;;;8.85;;
68196;SDS011;55019;49.382;11.358;2024-01-30T13:32:37;14.63;;;8.52;;
68196;SDS011;55019;49.382;11.358;2024-01-30T13:35:03;15.57;;;8.73;;
68196;SDS011;55019;49.382;11.358;2024-01-30T13:37:29;14.07;;;8.30;;
68196;SDS011;55019;49.382;11.358;2024-01-30T13:39:55;14.45;;;8.60;;
68196;SDS011;55019;49.382;11.358;2024-01-30T13:42:22;10.70;;;8.07;;
68196;SDS011;55019;49.382;11.358;2024-01-30T13:44:48;14.05;;;8.10;;
68196;SDS011;55019;49.382;11.358;2024-01-30T13:47:14;14.52;;;8.35;;
68196;SDS011;55019;49.382;11.358;2024-01-30T13:49:39;13.95;;;8.77;;
68196;SDS011;55019;49.382;11.358;2024-01-30T13:52:05;15.88;;;8.07;;
68196;SDS011;55019;49.382;11.358;2024-01-30T13:54:31;13.05;;;7.60;;
68196;SDS011;55019;49.382;11.358;2024-01-30T13:56:57;13.30;;;7.43;;
68196;SDS011;55019;49.382;11.358;2024-01-30T13:59:23;13.32;;;8.02;;
68196;SDS011;55019;49.382;11.358;2024-01-30T14:01:54;11.77;;;7.22;;
68196;SDS011;55019;49.382;11.358;2024-01-30T14:04:19;13.70;;;8.10;;
68196;SDS011;55019;49.382;11.358;2024-01-30T14:06:45;14.27;;;8.07;;
68196;SDS011;55019;49.382;11.358;2024-01-30T14:09:11;12.93;;;7.80;;
68196;SDS011;55019;49.382;11.358;2024-01-30T14:11:37;11.93;;;8.00;;
68196;SDS011;55019;49.382;11.358;2024-01-30T14:14:03;11.73;;;7.07;;
68196;SDS011;55019;49.382;11.358;2024-01-30T14:16:29;10.88;;;6.75;;
68196;SDS011;55019;49.382;11.358;2024-01-30T14:18:55;15.10;;;7.43;;
68196;SDS011;55019;49.382;11.358;2024-01-30T14:21:20;13.50;;;7.20;;
68196;SDS011;55019;49.382;11.358;2024-01-30T14:23:46;13.80;;;8.05;;
68196;SDS011;55019;49.382;11.358;2024-01-30T14:26:12;13.50;;;7.43;;
68196;SDS011;55019;49.382;11.358;2024-01-30T14:28:38;13.75;;;7.38;;
68196;SDS011;55019;49.382;11.358;2024-01-30T14:31:04;13.75;;;8.20;;
68196;SDS011;55019;49.382;11.358;2024-01-30T14:33:30;12.65;;;6.57;;
68196;SDS011;55019;49.382;11.358;2024-01-30T14:35:56;12.20;;;7.90;;
68196;SDS011;55019;49.382;11.358;2024-01-30T14:38:21;12.88;;;6.95;;
68196;SDS011;55019;49.382;11.358;2024-01-30T14:40:47;16.05;;;8.05;;
68196;SDS011;55019;49.382;11.358;2024-01-30T14:43:13;12.52;;;7.10;;